Terminal Aerodrome Forecast
Issued by NWS

Home | Current Version | Previous Version | Text Only | Print | Product List | Glossary On
Versions: 1 2 3 4 5 6 7 8 9 10 11 12 13 14 15 16
000
FTAK31 PAJN 251700
TAFASI
TAF
PASI 251738Z 2518/2618 19015G25KT P6SM -SHRA BKN025 OVC035
      TEMPO 2518/2522 4SM -SHRA BKN020 OVC030
     FM252200 17010KT P6SM -SHRA SCT030 OVC060
     FM260300 VRB06KT P6SM VCSH SCT040 BKN070
     FM261200 VRB06KT P6SM VCFG SCT010 BKN050=

USA.gov is the U.S. government's official web portal to all federal, state and local government web resources and services.